Time;durP1;ratioP1;P1;durP2;ratioP2;P2;SDS_P1;SDS_P2;PMS_P1;PMS_P2;Temp;Humidity;BMP_temperature;BMP_pressure;BME280_temperature;BME280_humidity;BME280_pressure;Samples;Min_cycle;Max_cycle;Signal;HPM_P1;HPM_P2
2021/07/01 00:00:20;;;;;;;26.08;16.70;;;14.40;99.90;;;;;;5081791;27;1273708;-75
2021/07/01 00:02:59;;;;;;;25.30;16.90;;;14.40;99.90;;;;;;5052560;28;20484;-75
2021/07/01 00:05:37;;;;;;;19.90;14.63;;;14.40;99.90;;;;;;5069149;27;20413;-77
2021/07/01 00:08:15;;;;;;;26.80;16.38;;;14.40;99.90;;;;;;5132370;27;20324;-75
2021/07/01 00:10:55;;;;;;;18.83;13.68;;;14.40;99.90;;;;;;5054444;28;20543;-77
2021/07/01 00:13:35;;;;;;;21.55;13.88;;;14.40;99.90;;;;;;5103846;27;20441;-77
2021/07/01 00:16:12;;;;;;;22.98;13.48;;;14.40;99.90;;;;;;5054409;28;20450;-77
2021/07/01 00:18:50;;;;;;;19.75;12.85;;;14.40;99.90;;;;;;5049481;28;20774;-77
2021/07/01 00:21:26;;;;;;;19.70;12.90;;;14.30;99.90;;;;;;5080914;27;1267593;-76
2021/07/01 00:24:04;;;;;;;22.88;13.15;;;14.40;99.90;;;;;;5050519;28;20947;-76
2021/07/01 00:26:41;;;;;;;20.55;13.07;;;14.40;99.90;;;;;;5053887;28;20154;-74
2021/07/01 00:29:18;;;;;;;19.70;12.55;;;14.40;99.90;;;;;;5050729;27;20438;-76
2021/07/01 00:31:54;;;;;;;16.17;11.00;;;14.40;99.90;;;;;;5092133;27;1301099;-77
2021/07/01 00:34:32;;;;;;;18.27;12.20;;;14.40;99.90;;;;;;5052485;28;20909;-75
2021/07/01 00:37:10;;;;;;;12.90;10.15;;;14.40;99.90;;;;;;5093194;27;20481;-75
2021/07/01 00:39:45;;;;;;;19.48;11.63;;;14.40;99.90;;;;;;5071054;27;1471139;-75
2021/07/01 00:42:39;;;;;;;17.77;11.60;;;14.40;99.90;;;;;;5094678;27;20434;-76
2021/07/01 00:45:16;;;;;;;15.93;9.55;;;14.50;99.90;;;;;;5074012;27;20903;-75
2021/07/01 00:47:53;;;;;;;14.00;8.50;;;14.50;99.90;;;;;;5052118;28;20233;-78
2021/07/01 00:50:29;;;;;;;16.67;9.52;;;14.50;99.90;;;;;;5094243;27;1283288;-75
2021/07/01 00:53:06;;;;;;;15.00;9.35;;;14.50;99.90;;;;;;5054859;28;20933;-75
2021/07/01 00:55:43;;;;;;;16.67;10.52;;;14.50;99.90;;;;;;5053965;28;20170;-75
2021/07/01 00:58:22;;;;;;;15.38;10.23;;;14.40;99.90;;;;;;5080012;27;20463;-75
2021/07/01 01:01:04;;;;;;;23.45;11.43;;;14.40;99.90;;;;;;5054572;28;20539;-77
2021/07/01 01:03:41;;;;;;;15.93;11.50;;;14.40;99.90;;;;;;5053493;27;20488;-78
2021/07/01 01:06:17;;;;;;;21.25;13.50;;;14.40;99.90;;;;;;5053819;28;20742;-78
2021/07/01 01:08:58;;;;;;;20.38;11.52;;;14.40;99.90;;;;;;5050645;28;20426;-76
2021/07/01 01:11:35;;;;;;;21.38;11.45;;;14.40;99.90;;;;;;5094849;27;20486;-77
2021/07/01 01:14:15;;;;;;;19.05;12.50;;;14.40;99.90;;;;;;5053468;28;20535;-75
2021/07/01 01:16:58;;;;;;;22.40;13.30;;;14.40;99.90;;;;;;5053197;28;20431;-76
2021/07/01 01:19:35;;;;;;;23.55;13.02;;;14.40;99.90;;;;;;5092435;27;20152;-75
2021/07/01 01:22:11;;;;;;;30.95;13.68;;;14.40;99.90;;;;;;5058689;27;20513;-76
2021/07/01 01:24:53;;;;;;;18.02;10.88;;;14.40;99.90;;;;;;5073659;28;20916;-75
2021/07/01 01:27:29;;;;;;;22.40;14.00;;;14.40;99.90;;;;;;5054703;28;20315;-75
2021/07/01 01:30:08;;;;;;;27.15;15.27;;;14.40;99.90;;;;;;5112458;27;20476;-77
2021/07/01 01:32:52;;;;;;;26.50;13.40;;;14.40;99.90;;;;;;5052976;28;20579;-77
2021/07/01 01:35:31;;;;;;;19.45;12.93;;;14.40;99.90;;;;;;5093288;27;21713;-75
2021/07/01 01:38:12;;;;;;;19.33;11.65;;;14.40;99.90;;;;;;5091673;27;20581;-75
2021/07/01 01:40:50;;;;;;;20.75;10.98;;;14.40;99.90;;;;;;5073498;28;20436;-76
2021/07/01 01:43:28;;;;;;;19.88;11.63;;;14.40;99.90;;;;;;5075594;27;20478;-75
2021/07/01 01:46:07;;;;;;;24.25;11.90;;;14.40;99.90;;;;;;5094431;27;21042;-74
2021/07/01 01:48:50;;;;;;;21.05;12.00;;;14.40;99.90;;;;;;5088603;27;20421;-78
2021/07/01 01:51:28;;;;;;;21.90;10.50;;;14.40;99.90;;;;;;5055456;28;20545;-75
2021/07/01 01:54:11;;;;;;;17.92;10.43;;;14.40;99.90;;;;;;5034468;28;20563;-77
2021/07/01 01:56:50;;;;;;;22.52;10.02;;;14.30;99.90;;;;;;5054118;28;20434;-76
2021/07/01 01:59:41;;;;;;;15.80;9.55;;;14.30;99.90;;;;;;5089571;27;20427;-75
2021/07/01 02:02:40;;;;;;;16.08;9.13;;;14.30;99.90;;;;;;5135468;27;20319;-75
2021/07/01 02:05:36;;;;;;;19.05;9.77;;;14.30;99.90;;;;;;5035161;28;20435;-78
2021/07/01 02:09:37;;;;;;;17.45;9.55;;;14.20;99.90;;;;;;5053392;28;20481;-75
2021/07/01 02:12:15;;;;;;;17.70;8.43;;;14.20;99.90;;;;;;5075559;27;20420;-75
2021/07/01 02:14:53;;;;;;;17.85;9.10;;;14.20;99.90;;;;;;5143926;27;20304;-75
2021/07/01 02:17:41;;;;;;;19.55;9.50;;;14.20;99.90;;;;;;5053604;28;21011;-75
2021/07/01 02:20:21;;;;;;;14.52;8.35;;;14.20;99.90;;;;;;5094385;27;20176;-75
2021/07/01 02:22:58;;;;;;;19.35;10.35;;;14.20;99.90;;;;;;5044912;28;20519;-77
2021/07/01 02:25:42;;;;;;;17.83;8.85;;;14.10;99.90;;;;;;5054146;28;20437;-75
2021/07/01 02:28:27;;;;;;;14.98;7.22;;;14.10;99.90;;;;;;5052374;28;20431;-75
2021/07/01 02:31:33;;;;;;;15.15;8.77;;;14.00;99.90;;;;;;5038077;28;20436;-77
2021/07/01 02:34:10;;;;;;;13.07;6.75;;;14.00;99.90;;;;;;5052317;28;20422;-77
2021/07/01 02:37:06;;;;;;;16.95;8.30;;;14.00;99.90;;;;;;5114161;27;1275871;-76
2021/07/01 02:40:04;;;;;;;14.98;8.95;;;14.00;99.90;;;;;;5072093;28;20222;-75
2021/07/01 02:42:49;;;;;;;14.20;8.43;;;13.90;99.90;;;;;;5073463;27;1305731;-75
2021/07/01 02:45:27;;;;;;;17.63;9.10;;;14.00;99.90;;;;;;5053667;28;20483;-75
2021/07/01 02:48:24;;;;;;;15.30;8.15;;;14.00;99.90;;;;;;5105812;27;20842;-75
2021/07/01 02:51:00;;;;;;;15.73;8.75;;;14.00;99.90;;;;;;5054417;28;20099;-75
2021/07/01 02:53:37;;;;;;;14.15;8.23;;;14.00;99.90;;;;;;5054211;28;20199;-75
2021/07/01 02:56:16;;;;;;;11.38;7.10;;;13.90;99.90;;;;;;5074233;27;20436;-75
2021/07/01 02:58:53;;;;;;;13.10;7.80;;;13.90;99.90;;;;;;5051095;28;20509;-78
2021/07/01 03:01:50;;;;;;;13.25;7.85;;;13.90;99.90;;;;;;5051208;28;20476;-77
2021/07/01 03:04:40;;;;;;;20.55;8.25;;;13.90;99.90;;;;;;5083940;27;20439;-75
2021/07/01 03:07:17;;;;;;;10.73;7.47;;;13.90;99.90;;;;;;5052412;28;20313;-75
2021/07/01 03:09:55;;;;;;;14.63;8.15;;;13.90;99.90;;;;;;5094840;27;21572;-75
2021/07/01 03:12:33;;;;;;;13.90;7.93;;;13.90;99.90;;;;;;5044166;28;21055;-78
2021/07/01 03:15:12;;;;;;;15.50;8.50;;;13.90;99.90;;;;;;5082056;27;20420;-75
2021/07/01 03:18:02;;;;;;;13.32;7.93;;;13.80;99.90;;;;;;5134908;27;20922;-77
2021/07/01 03:20:57;;;;;;;16.30;8.57;;;13.80;99.90;;;;;;5054293;28;20504;-77
2021/07/01 03:23:55;;;;;;;14.65;7.50;;;13.90;99.90;;;;;;5133917;27;20319;-77
2021/07/01 03:26:34;;;;;;;14.75;7.72;;;13.90;99.90;;;;;;5093659;27;20602;-78
2021/07/01 03:29:12;;;;;;;22.30;9.48;;;13.90;99.90;;;;;;5091378;27;20128;-74
2021/07/01 03:31:51;;;;;;;16.77;8.27;;;13.90;99.90;;;;;;5073568;28;20463;-75
2021/07/01 03:34:41;;;;;;;13.77;7.72;;;13.80;99.90;;;;;;5107945;27;20465;-75
2021/07/01 03:37:17;;;;;;;15.13;7.20;;;13.80;99.90;;;;;;5043629;28;20185;-75
2021/07/01 03:40:13;;;;;;;20.48;8.73;;;13.80;99.90;;;;;;5053266;28;20426;-74
2021/07/01 03:42:55;;;;;;;12.23;6.45;;;13.80;99.90;;;;;;5073787;27;20486;-75
2021/07/01 03:45:31;;;;;;;14.27;6.95;;;13.80;99.90;;;;;;5074131;28;20165;-77
2021/07/01 03:48:10;;;;;;;20.02;7.78;;;13.80;99.90;;;;;;5052222;28;21229;-77
2021/07/01 03:50:59;;;;;;;16.38;7.40;;;13.80;99.90;;;;;;5091004;27;21280;-77
2021/07/01 03:53:48;;;;;;;16.95;6.65;;;13.80;99.90;;;;;;5054202;28;20956;-75
2021/07/01 03:56:25;;;;;;;15.80;7.82;;;13.90;99.90;;;;;;5054230;28;20605;-77
2021/07/01 03:59:03;;;;;;;17.20;7.72;;;13.90;99.90;;;;;;5102401;27;20874;-76
2021/07/01 04:01:59;;;;;;;19.30;7.03;;;13.90;99.90;;;;;;5053867;28;20508;-76
2021/07/01 04:04:35;;;;;;;13.30;6.35;;;13.90;99.90;;;;;;5052098;28;20166;-76
2021/07/01 04:07:14;;;;;;;15.93;6.85;;;13.90;99.90;;;;;;5074058;27;20425;-75
2021/07/01 04:10:20;;;;;;;14.40;6.93;;;13.90;99.90;;;;;;5118892;27;20448;-75
2021/07/01 04:13:00;;;;;;;23.58;9.52;;;13.90;99.90;;;;;;5087683;27;1332021;-75
2021/07/01 04:15:46;;;;;;;18.77;8.30;;;13.90;99.90;;;;;;5075228;27;21000;-76
2021/07/01 04:18:32;;;;;;;15.38;8.30;;;13.90;99.90;;;;;;5050939;28;20438;-75
2021/07/01 04:21:28;;;;;;;13.60;7.45;;;13.90;99.90;;;;;;5090996;27;1341836;-77
2021/07/01 04:24:23;;;;;;;19.08;8.32;;;14.00;99.90;;;;;;5051897;28;20220;-74
2021/07/01 04:27:15;;;;;;;15.65;6.97;;;14.00;99.90;;;;;;5080253;27;1312471;-75
2021/07/01 04:29:50;;;;;;;20.08;8.27;;;14.00;99.90;;;;;;5074882;27;1276155;-74
2021/07/01 04:32:28;;;;;;;16.83;7.43;;;14.00;99.90;;;;;;5072518;27;1409123;-75
2021/07/01 04:35:05;;;;;;;20.25;9.00;;;14.00;99.90;;;;;;5044675;28;20512;-73
2021/07/01 04:37:42;;;;;;;17.55;6.82;;;14.00;99.90;;;;;;5051667;28;20541;-73
2021/07/01 04:40:21;;;;;;;14.45;6.75;;;14.00;99.90;;;;;;5051710;28;20496;-74
2021/07/01 04:42:57;;;;;;;17.90;7.60;;;14.00;99.90;;;;;;5108523;27;20207;-74
2021/07/01 04:45:37;;;;;;;13.88;6.50;;;14.00;99.90;;;;;;5051579;28;20415;-74
2021/07/01 04:48:14;;;;;;;12.48;6.70;;;14.00;99.90;;;;;;5091195;27;21352;-74
2021/07/01 04:50:52;;;;;;;16.63;8.05;;;14.00;99.90;;;;;;5052886;28;21012;-76
2021/07/01 04:53:57;;;;;;;15.65;6.88;;;14.00;99.90;;;;;;5053354;28;21751;-74
2021/07/01 04:56:53;;;;;;;20.70;8.00;;;14.00;99.90;;;;;;5071879;28;21354;-74
2021/07/01 04:59:30;;;;;;;15.68;7.88;;;14.00;99.90;;;;;;5110422;27;1278566;-74
2021/07/01 05:02:15;;;;;;;20.45;7.47;;;14.00;99.90;;;;;;5053485;28;20422;-75
2021/07/01 05:05:18;;;;;;;11.52;6.80;;;14.00;99.90;;;;;;5051796;28;20480;-78
2021/07/01 05:08:00;;;;;;;13.55;7.47;;;14.10;99.90;;;;;;5050994;28;20458;-76
2021/07/01 05:10:38;;;;;;;18.63;7.55;;;14.00;99.90;;;;;;5032638;28;20435;-76
2021/07/01 05:13:21;;;;;;;17.98;7.82;;;14.00;99.90;;;;;;5106963;27;1323546;-74
2021/07/01 05:16:00;;;;;;;18.50;7.82;;;14.00;99.90;;;;;;5052858;28;20434;-73
2021/07/01 05:18:37;;;;;;;20.98;8.88;;;14.00;99.90;;;;;;5091280;27;20441;-73
2021/07/01 05:21:43;;;;;;;20.95;7.63;;;14.10;99.90;;;;;;5054223;28;20492;-76
2021/07/01 05:24:41;;;;;;;19.70;8.93;;;14.00;99.90;;;;;;5070864;28;20392;-74
2021/07/01 05:27:35;;;;;;;17.63;7.95;;;14.00;99.90;;;;;;5047085;27;1367792;-74
2021/07/01 05:30:30;;;;;;;17.40;9.37;;;14.10;99.90;;;;;;5078698;27;1282708;-77
2021/07/01 05:33:24;;;;;;;12.82;6.10;;;14.10;99.90;;;;;;5082875;27;1310637;-76
2021/07/01 05:36:03;;;;;;;13.88;6.45;;;14.10;99.90;;;;;;5085578;27;1309087;-77
2021/07/01 05:38:41;;;;;;;11.40;5.88;;;14.20;99.90;;;;;;5070776;28;20425;-74
2021/07/01 05:41:19;;;;;;;16.63;8.32;;;14.20;99.90;;;;;;5093000;27;20430;-74
2021/07/01 05:43:58;;;;;;;12.82;6.88;;;14.20;99.90;;;;;;5050361;28;20170;-73
2021/07/01 05:46:53;;;;;;;10.48;5.85;;;14.30;99.90;;;;;;5077452;27;1280671;-74
2021/07/01 05:49:32;;;;;;;15.18;7.03;;;14.30;99.90;;;;;;5090861;27;20594;-76
2021/07/01 05:52:09;;;;;;;15.90;7.18;;;14.30;99.90;;;;;;5053906;27;2347575;-74
2021/07/01 05:54:55;;;;;;;18.65;8.80;;;14.30;99.90;;;;;;5088192;27;1280669;-75
2021/07/01 05:57:33;;;;;;;14.00;6.90;;;14.30;99.90;;;;;;5071092;28;20121;-74
2021/07/01 06:00:12;;;;;;;12.70;7.65;;;14.20;99.90;;;;;;5090067;27;20131;-77
2021/07/01 06:03:01;;;;;;;16.52;7.85;;;14.20;99.90;;;;;;5073387;28;20486;-76
2021/07/01 06:05:45;;;;;;;18.67;8.85;;;14.30;99.90;;;;;;5051945;28;21008;-75
2021/07/01 06:08:45;;;;;;;14.63;7.65;;;14.30;99.90;;;;;;5064309;27;1612001;-72
2021/07/01 06:11:20;;;;;;;12.02;6.93;;;14.20;99.90;;;;;;5099358;27;1576610;-75
2021/07/01 06:13:59;;;;;;;11.07;6.43;;;14.30;99.90;;;;;;5050587;28;20496;-72
2021/07/01 06:16:38;;;;;;;9.80;6.63;;;14.30;99.90;;;;;;5092979;27;20487;-73
2021/07/01 06:19:16;;;;;;;13.65;6.97;;;14.30;99.90;;;;;;5049996;28;20438;-73
2021/07/01 06:21:52;;;;;;;8.98;6.20;;;14.40;99.90;;;;;;5089834;27;1262844;-74
2021/07/01 06:24:29;;;;;;;17.75;8.55;;;14.40;99.90;;;;;;5091827;27;1249423;-74
2021/07/01 06:27:06;;;;;;;14.93;7.55;;;14.40;99.90;;;;;;5072776;28;20538;-73
2021/07/01 06:29:45;;;;;;;13.68;7.22;;;14.40;99.90;;;;;;5051915;28;20552;-73
2021/07/01 06:32:22;;;;;;;13.55;6.82;;;14.50;99.90;;;;;;5093055;27;20408;-73
2021/07/01 06:34:59;;;;;;;10.98;6.93;;;14.50;99.90;;;;;;5052968;28;20166;-73
2021/07/01 06:37:39;;;;;;;13.60;7.05;;;14.60;99.90;;;;;;5051628;28;20873;-74
2021/07/01 06:40:34;;;;;;;13.37;8.37;;;14.70;99.90;;;;;;5097786;27;1644794;-72
2021/07/01 06:43:29;;;;;;;12.80;6.72;;;14.80;99.90;;;;;;5052416;28;21434;-76
2021/07/01 06:46:30;;;;;;;9.30;6.88;;;14.80;99.90;;;;;;5053288;28;20724;-72
2021/07/01 06:49:35;;;;;;;15.15;7.20;;;14.80;99.90;;;;;;5066295;27;20446;-77
2021/07/01 06:52:59;;;;;;;11.45;7.30;;;14.90;99.90;;;;;;5072531;27;20638;-74
2021/07/01 06:56:10;;;;;;;10.50;6.78;;;14.90;99.90;;;;;;5073361;28;20487;-76
2021/07/01 06:58:47;;;;;;;13.55;7.95;;;14.80;99.90;;;;;;5069885;28;20483;-75
2021/07/01 07:01:27;;;;;;;15.20;8.80;;;14.90;99.90;;;;;;5080664;27;20844;-74
2021/07/01 07:04:04;;;;;;;16.90;8.80;;;14.90;99.90;;;;;;5051539;28;20504;-73
2021/07/01 07:06:41;;;;;;;15.45;8.05;;;14.80;99.90;;;;;;5076604;27;1354763;-73
2021/07/01 07:09:18;;;;;;;15.55;7.57;;;14.80;99.90;;;;;;5069556;28;20475;-76
2021/07/01 07:11:55;;;;;;;14.40;7.72;;;14.90;99.90;;;;;;5051981;28;20696;-74
2021/07/01 07:14:31;;;;;;;16.02;10.75;;;14.90;99.90;;;;;;5071670;27;20531;-75
2021/07/01 07:17:09;;;;;;;18.08;9.63;;;15.00;99.90;;;;;;5052012;28;20174;-77
2021/07/01 07:19:48;;;;;;;16.42;10.20;;;15.10;99.90;;;;;;5091410;27;20432;-73
2021/07/01 07:22:28;;;;;;;19.88;10.23;;;15.10;99.90;;;;;;5088736;27;1338187;-75
2021/07/01 07:25:08;;;;;;;17.27;9.55;;;15.10;99.90;;;;;;5092414;27;20423;-74
2021/07/01 07:27:52;;;;;;;19.10;9.68;;;15.10;99.90;;;;;;5090215;27;20438;-74
2021/07/01 07:30:30;;;;;;;18.35;10.25;;;15.10;99.90;;;;;;5055153;28;20961;-74
2021/07/01 07:33:10;;;;;;;16.17;9.73;;;15.10;99.90;;;;;;5144282;27;20417;-72
2021/07/01 07:35:47;;;;;;;16.65;9.00;;;15.20;99.90;;;;;;5048646;28;20424;-73
2021/07/01 07:38:26;;;;;;;19.45;10.18;;;15.20;99.90;;;;;;5050464;28;20426;-75
2021/07/01 07:41:03;;;;;;;18.83;10.27;;;15.30;99.90;;;;;;5094353;27;20428;-75
2021/07/01 07:43:41;;;;;;;17.80;10.63;;;15.20;99.90;;;;;;5054211;28;20183;-75
2021/07/01 07:46:19;;;;;;;20.50;9.80;;;15.30;99.90;;;;;;5054761;28;20422;-76
2021/07/01 07:48:56;;;;;;;18.13;10.75;;;15.30;99.90;;;;;;5051933;28;20437;-78
2021/07/01 07:51:34;;;;;;;17.33;8.82;;;15.30;99.90;;;;;;5052897;28;20185;-76
2021/07/01 07:54:12;;;;;;;21.75;11.45;;;15.30;99.90;;;;;;5052636;28;20443;-78
2021/07/01 07:56:52;;;;;;;18.92;9.82;;;15.40;99.90;;;;;;5093306;27;20854;-76
2021/07/01 07:59:29;;;;;;;21.73;10.23;;;15.40;99.90;;;;;;5111395;27;20415;-72
2021/07/01 08:02:13;;;;;;;17.13;9.18;;;15.40;99.90;;;;;;5052620;28;21329;-74
2021/07/01 08:04:50;;;;;;;26.80;10.73;;;15.40;99.90;;;;;;5051579;28;20449;-72
2021/07/01 08:07:30;;;;;;;20.70;10.65;;;15.40;99.90;;;;;;5050060;28;21006;-72
2021/07/01 08:10:10;;;;;;;23.52;11.63;;;15.40;99.90;;;;;;5090739;27;20434;-72
2021/07/01 08:12:51;;;;;;;18.38;10.45;;;15.40;99.90;;;;;;5043397;28;20432;-72
2021/07/01 08:15:27;;;;;;;22.35;11.20;;;15.40;99.90;;;;;;5055815;27;1957187;-73
2021/07/01 08:18:06;;;;;;;24.98;11.70;;;15.40;99.90;;;;;;5050807;28;20453;-76
2021/07/01 08:20:44;;;;;;;22.27;11.52;;;15.40;99.90;;;;;;5052727;28;20855;-72
2021/07/01 08:23:21;;;;;;;20.75;10.30;;;15.30;99.90;;;;;;5052425;28;21002;-73
2021/07/01 08:26:02;;;;;;;21.13;10.25;;;15.30;99.90;;;;;;5054981;28;20852;-73
2021/07/01 08:28:39;;;;;;;22.80;10.68;;;15.30;99.90;;;;;;5049854;28;20474;-73
2021/07/01 08:31:17;;;;;;;17.23;10.27;;;15.30;99.90;;;;;;5096420;27;1287606;-73
2021/07/01 08:33:57;;;;;;;22.15;10.35;;;15.20;99.90;;;;;;5052845;28;20419;-73
2021/07/01 08:36:35;;;;;;;21.25;11.55;;;15.30;99.90;;;;;;5092423;27;1272874;-75
2021/07/01 08:39:12;;;;;;;30.90;12.75;;;15.30;99.90;;;;;;5085103;27;20467;-75
2021/07/01 08:41:56;;;;;;;26.02;12.25;;;15.20;99.90;;;;;;5052921;28;20414;-73
2021/07/01 08:44:44;;;;;;;21.15;9.80;;;15.10;99.90;;;;;;5073185;27;20497;-75
2021/07/01 08:47:31;;;;;;;20.85;9.93;;;15.20;99.90;;;;;;5042465;28;20846;-73
2021/07/01 08:50:15;;;;;;;21.85;10.93;;;15.20;99.90;;;;;;5051895;28;20563;-75
2021/07/01 08:53:09;;;;;;;21.67;10.70;;;15.20;99.90;;;;;;5056948;28;20522;-76
2021/07/01 08:55:50;;;;;;;23.83;11.40;;;15.30;99.90;;;;;;5053520;28;20438;-74
2021/07/01 08:58:32;;;;;;;24.02;11.50;;;15.40;99.90;;;;;;5049599;28;20849;-77
2021/07/01 09:01:08;;;;;;;22.10;11.43;;;15.40;99.90;;;;;;5121556;27;1274597;-80
2021/07/01 09:03:49;;;;;;;22.20;10.52;;;15.40;99.90;;;;;;5057683;28;20474;-77
2021/07/01 09:06:26;;;;;;;23.33;10.63;;;15.40;99.90;;;;;;5111938;27;1257139;-78
2021/07/01 09:09:09;;;;;;;26.52;10.10;;;15.40;99.90;;;;;;5101294;27;20513;-77
2021/07/01 09:11:47;;;;;;;23.52;10.63;;;15.40;99.90;;;;;;5056272;28;20442;-78
2021/07/01 09:14:26;;;;;;;22.52;11.88;;;15.40;99.90;;;;;;5094474;27;20541;-77
2021/07/01 09:17:09;;;;;;;29.08;12.70;;;15.40;99.90;;;;;;5043565;28;20427;-78
2021/07/01 09:19:47;;;;;;;27.48;12.68;;;15.40;99.90;;;;;;5052496;28;20484;-79
2021/07/01 09:22:27;;;;;;;25.23;11.13;;;15.50;99.90;;;;;;5053524;28;20504;-78
2021/07/01 09:25:05;;;;;;;24.30;10.98;;;15.50;99.90;;;;;;5092412;27;20850;-77
2021/07/01 09:27:46;;;;;;;25.35;11.63;;;15.50;99.90;;;;;;5054318;28;21300;-78
2021/07/01 09:30:28;;;;;;;25.88;12.48;;;15.50;99.90;;;;;;5072606;28;20444;-77
2021/07/01 09:33:07;;;;;;;34.17;14.07;;;15.50;99.90;;;;;;5053800;28;20486;-78
2021/07/01 09:35:44;;;;;;;24.10;11.85;;;15.40;99.90;;;;;;5085882;27;1275157;-78
2021/07/01 09:38:25;;;;;;;27.42;11.10;;;15.40;99.90;;;;;;5077646;27;1310130;-80
2021/07/01 09:41:02;;;;;;;17.63;9.93;;;15.40;99.90;;;;;;5053899;28;20462;-78
2021/07/01 09:43:40;;;;;;;22.35;10.32;;;15.40;99.90;;;;;;5074099;28;20251;-78
2021/07/01 09:46:21;;;;;;;22.38;10.38;;;15.50;99.90;;;;;;5094533;27;20423;-78
2021/07/01 09:49:01;;;;;;;26.17;11.68;;;15.40;99.90;;;;;;5052321;28;20541;-78
2021/07/01 09:51:37;;;;;;;21.00;9.65;;;15.40;99.90;;;;;;5111317;27;1266228;-80
2021/07/01 09:54:16;;;;;;;19.55;9.57;;;15.40;99.90;;;;;;5036941;28;20493;-76
2021/07/01 09:56:55;;;;;;;24.50;10.07;;;15.40;99.90;;;;;;5109601;27;1273343;-73
2021/07/01 09:59:53;;;;;;;25.30;12.07;;;15.50;99.90;;;;;;5070816;27;20486;-73
2021/07/01 10:02:31;;;;;;;27.85;11.85;;;15.50;99.90;;;;;;5112905;27;21009;-73
2021/07/01 10:05:25;;;;;;;24.27;11.10;;;15.50;99.90;;;;;;5091114;27;21027;-73
2021/07/01 10:08:03;;;;;;;26.98;10.95;;;15.60;99.90;;;;;;5050467;28;20457;-73
2021/07/01 10:10:49;;;;;;;28.08;11.98;;;15.60;99.90;;;;;;5072554;28;21012;-73
2021/07/01 10:13:25;;;;;;;25.48;11.35;;;15.70;99.90;;;;;;5052400;28;20565;-73
2021/07/01 10:16:03;;;;;;;29.58;12.35;;;15.70;99.90;;;;;;5077394;27;1325342;-75
2021/07/01 10:18:43;;;;;;;28.83;12.80;;;15.80;99.90;;;;;;5110854;27;20451;-75
2021/07/01 10:21:46;;;;;;;29.27;11.68;;;15.90;99.90;;;;;;5053002;28;21834;-76
2021/07/01 10:24:26;;;;;;;24.33;11.57;;;16.00;99.90;;;;;;5045641;28;20165;-75
2021/07/01 10:27:03;;;;;;;31.30;12.27;;;16.00;99.90;;;;;;5128904;27;20927;-77
2021/07/01 10:29:41;;;;;;;26.05;11.93;;;16.00;99.90;;;;;;5042102;28;20479;-78
2021/07/01 10:32:32;;;;;;;22.05;11.13;;;16.00;99.90;;;;;;5086279;27;1297860;-77
2021/07/01 10:35:26;;;;;;;29.27;12.00;;;16.10;99.90;;;;;;5072750;28;20478;-73
2021/07/01 10:38:13;;;;;;;23.60;11.57;;;16.20;99.90;;;;;;5051645;28;20478;-74
2021/07/01 10:40:53;;;;;;;23.25;11.85;;;16.20;99.90;;;;;;5113437;27;20422;-73
2021/07/01 10:43:48;;;;;;;22.95;10.90;;;16.30;99.90;;;;;;5085940;27;20796;-73
2021/07/01 10:46:45;;;;;;;24.48;11.68;;;16.40;99.90;;;;;;5087421;27;1259096;-77
2021/07/01 10:49:36;;;;;;;29.05;12.48;;;16.50;99.90;;;;;;5045678;28;20182;-78
2021/07/01 10:52:34;;;;;;;25.52;11.85;;;16.60;99.90;;;;;;5073290;27;20574;-76
2021/07/01 10:55:12;;;;;;;20.23;11.25;;;16.70;99.90;;;;;;5052854;28;20476;-79
2021/07/01 10:58:01;;;;;;;27.95;11.93;;;16.80;99.90;;;;;;5052200;28;20532;-76
2021/07/01 11:00:43;;;;;;;22.02;11.82;;;16.90;99.90;;;;;;5093871;27;20508;-77
2021/07/01 11:03:26;;;;;;;26.10;11.60;;;16.90;99.90;;;;;;5082799;27;20433;-76
2021/07/01 11:06:14;;;;;;;22.67;12.18;;;16.90;99.90;;;;;;5045545;28;20433;-76
2021/07/01 11:08:54;;;;;;;21.95;11.13;;;17.00;99.90;;;;;;5090061;27;20565;-76
2021/07/01 11:11:33;;;;;;;32.22;12.18;;;17.00;99.90;;;;;;5051835;28;20519;-83
2021/07/01 11:14:12;;;;;;;25.40;12.32;;;16.90;99.90;;;;;;5074975;27;20432;-83
2021/07/01 11:16:50;;;;;;;18.27;9.32;;;16.80;99.90;;;;;;5054573;28;20842;-80
2021/07/01 11:19:39;;;;;;;18.35;9.98;;;16.80;99.90;;;;;;5077973;27;20466;-76
2021/07/01 11:22:16;;;;;;;26.40;11.13;;;16.80;99.90;;;;;;5092956;27;20427;-77
2021/07/01 11:24:54;;;;;;;26.85;12.10;;;16.80;99.90;;;;;;5055208;28;20426;-79
2021/07/01 11:27:31;;;;;;;24.87;12.20;;;16.80;99.90;;;;;;5083639;27;1263728;-77
2021/07/01 11:30:21;;;;;;;19.30;10.18;;;16.80;99.90;;;;;;5093293;27;20506;-77
2021/07/01 11:33:16;;;;;;;26.17;11.15;;;16.90;99.90;;;;;;5056344;28;20497;-80
2021/07/01 11:36:14;;;;;;;25.85;10.63;;;16.90;99.90;;;;;;5093687;27;20427;-77
2021/07/01 11:39:04;;;;;;;21.75;11.07;;;16.90;99.90;;;;;;5069758;27;20866;-80
2021/07/01 11:41:45;;;;;;;29.83;10.70;;;16.90;99.90;;;;;;5053973;28;20438;-77
2021/07/01 11:44:23;;;;;;;23.05;10.75;;;16.80;99.90;;;;;;5089666;27;1294486;-77
2021/07/01 11:47:01;;;;;;;21.73;10.68;;;16.90;99.90;;;;;;5067082;27;1610085;-80
2021/07/01 11:49:41;;;;;;;23.80;11.18;;;16.90;99.90;;;;;;5051251;28;20488;-78
2021/07/01 11:52:17;;;;;;;21.73;10.20;;;17.00;99.90;;;;;;5045559;27;1754852;-78
2021/07/01 11:54:55;;;;;;;18.75;9.88;;;17.00;99.90;;;;;;5085815;27;1334023;-80
2021/07/01 11:57:32;;;;;;;23.13;9.63;;;17.10;99.90;;;;;;5092347;27;20424;-79
2021/07/01 12:00:09;;;;;;;25.65;10.80;;;17.20;99.90;;;;;;5051469;28;20738;-81
2021/07/01 12:02:52;;;;;;;22.55;9.15;;;17.30;99.90;;;;;;5114158;27;20414;-81
2021/07/01 12:05:31;;;;;;;22.17;10.02;;;17.30;99.90;;;;;;5072697;27;20475;-79
2021/07/01 12:08:11;;;;;;;21.00;10.32;;;17.40;99.90;;;;;;5050352;28;20426;-78
2021/07/01 12:10:46;;;;;;;21.60;10.45;;;17.50;99.90;;;;;;5092929;27;1250731;-78
2021/07/01 12:13:33;;;;;;;22.63;8.95;;;17.50;99.90;;;;;;5052384;28;20465;-78
2021/07/01 12:16:18;;;;;;;17.33;8.75;;;17.60;99.90;;;;;;5093307;27;20450;-80
2021/07/01 12:18:59;;;;;;;17.77;8.63;;;17.60;99.90;;;;;;5089445;27;20463;-78
2021/07/01 12:21:37;;;;;;;19.58;7.90;;;17.70;99.90;;;;;;5052336;28;20480;-78
2021/07/01 12:24:19;;;;;;;18.75;7.53;;;17.80;99.90;;;;;;5052948;28;20524;-77
2021/07/01 12:26:56;;;;;;;16.42;8.32;;;17.80;99.90;;;;;;5053146;28;20499;-78
2021/07/01 12:29:48;;;;;;;14.48;6.95;;;17.90;99.90;;;;;;5077475;27;1300953;-79
2021/07/01 12:32:27;;;;;;;16.73;7.57;;;17.90;99.90;;;;;;5055565;28;20964;-84
2021/07/01 12:35:41;;;;;;;21.55;8.20;;;18.00;99.90;;;;;;5094256;27;20484;-79
2021/07/01 12:38:18;;;;;;;14.65;7.60;;;18.20;99.90;;;;;;5070420;28;20483;-77
2021/07/01 12:41:00;;;;;;;18.08;8.73;;;18.40;99.90;;;;;;5072194;28;20184;-78
2021/07/01 12:43:46;;;;;;;15.93;7.47;;;18.60;99.90;;;;;;5053412;28;20992;-79
2021/07/01 12:46:46;;;;;;;19.30;7.25;;;18.70;99.90;;;;;;5052173;28;20474;-79
2021/07/01 12:49:26;;;;;;;17.88;7.85;;;18.90;99.90;;;;;;5075944;27;1259804;-78
2021/07/01 12:52:02;;;;;;;17.00;6.45;;;19.00;99.90;;;;;;5088894;27;1284485;-76
2021/07/01 12:54:39;;;;;;;18.23;7.07;;;19.10;99.90;;;;;;5052343;28;20443;-77
2021/07/01 12:57:16;;;;;;;15.27;6.85;;;19.20;99.90;;;;;;5052151;28;20442;-76
2021/07/01 12:59:53;;;;;;;15.27;7.72;;;19.40;99.90;;;;;;5091441;27;1262745;-76
2021/07/01 13:02:33;;;;;;;17.25;7.00;;;19.60;99.90;;;;;;5078755;27;1343837;-77
2021/07/01 13:05:15;;;;;;;21.42;6.55;;;19.80;99.90;;;;;;5051688;28;20933;-78
2021/07/01 13:07:53;;;;;;;19.98;7.10;;;19.90;99.90;;;;;;5120868;27;20135;-78
2021/07/01 13:10:31;;;;;;;19.90;6.45;;;19.90;99.90;;;;;;5173965;27;20478;-76
2021/07/01 13:13:09;;;;;;;16.70;6.20;;;19.90;99.90;;;;;;5052991;28;20528;-77
2021/07/01 13:15:47;;;;;;;16.90;6.38;;;19.90;99.90;;;;;;5071925;27;20432;-80
2021/07/01 13:18:24;;;;;;;16.85;6.38;;;20.00;99.90;;;;;;5087450;27;1579962;-81
2021/07/01 13:21:09;;;;;;;14.27;6.40;;;20.10;99.90;;;;;;5051210;28;20951;-77
2021/07/01 13:23:46;;;;;;;14.65;5.63;;;20.30;99.90;;;;;;5051914;28;20496;-78
2021/07/01 13:26:30;;;;;;;18.42;6.78;;;20.30;99.90;;;;;;5077782;27;20246;-79
2021/07/01 13:29:07;;;;;;;14.38;5.53;;;20.20;99.90;;;;;;5039074;28;20453;-77
2021/07/01 13:31:44;;;;;;;14.07;6.78;;;19.90;99.90;;;;;;5109843;27;1268444;-78
2021/07/01 13:34:28;;;;;;;19.10;6.88;;;19.70;99.90;;;;;;5053553;28;20785;-78
2021/07/01 13:37:25;;;;;;;18.73;5.88;;;19.50;99.90;;;;;;5076548;27;1275151;-78
2021/07/01 13:40:29;;;;;;;14.02;5.65;;;19.30;99.90;;;;;;5081685;27;20988;-79
2021/07/01 13:43:10;;;;;;;14.30;6.95;;;19.20;99.90;;;;;;5093579;27;21533;-78
2021/07/01 13:45:52;;;;;;;16.60;6.78;;;19.10;99.90;;;;;;5068000;28;20504;-78